Time;durP1;ratioP1;P1;durP2;ratioP2;P2;SDS_P1;SDS_P2;PMS_P1;PMS_P2;Temp;Humidity;BMP_temperature;BMP_pressure;BME280_temperature;BME280_humidity;BME280_pressure;Samples;Min_cycle;Max_cycle;Signal;HPM_P1;HPM_P2
2022/09/01 00:00:13;;;;;;;2.22;1.05;;;;;;;25.60;57.01;100466.34;4879829;29;20048;-62
2022/09/01 00:02:58;;;;;;;2.40;0.82;;;;;;;25.54;57.14;100472.38;4884299;29;20076;-61
2022/09/01 00:05:45;;;;;;;1.05;0.90;;;;;;;25.44;57.84;100484.47;4880293;29;20043;-61
2022/09/01 00:08:29;;;;;;;2.28;0.93;;;;;;;25.44;57.64;100467.75;4878771;29;20056;-61
2022/09/01 00:11:15;;;;;;;1.35;0.90;;;;;;;25.50;57.42;100471.63;4878932;29;20056;-61
2022/09/01 00:14:02;;;;;;;2.35;0.80;;;;;;;25.50;57.64;100466.06;4884567;29;20523;-61
2022/09/01 00:16:47;;;;;;;2.88;1.10;;;;;;;25.53;57.74;100456.88;4872914;29;20053;-61
2022/09/01 00:19:32;;;;;;;1.50;1.15;;;;;;;25.50;57.74;100466.06;4879100;29;20060;-60
2022/09/01 00:22:16;;;;;;;1.13;1.02;;;;;;;25.47;58.17;100460.53;4878955;29;20043;-61
2022/09/01 00:25:03;;;;;;;3.85;1.92;;;;;;;25.46;57.72;100454.19;4878863;29;20072;-61
2022/09/01 00:27:48;;;;;;;2.03;1.40;;;;;;;25.39;58.13;100459.88;4860876;29;20082;-60
2022/09/01 00:30:33;;;;;;;2.55;1.42;;;;;;;25.41;58.02;100451.88;4835451;29;1190245;-60
2022/09/01 00:33:18;;;;;;;2.20;1.15;;;;;;;25.40;57.84;100458.66;4861342;29;20533;-60
2022/09/01 00:36:04;;;;;;;1.30;0.90;;;;;;;25.39;57.97;100456.31;4863084;29;20045;-61
2022/09/01 00:39:09;;;;;;;1.60;1.00;;;;;;;25.38;58.06;100463.09;4879226;29;20068;-61
2022/09/01 00:41:54;;;;;;;;;;;;;;;25.30;58.07;100458.81;4879902;29;20432;-59
2022/09/01 00:44:39;;;;;;;2.50;1.27;;;;;;;25.23;58.41;100450.59;4879584;29;19915;-60
2022/09/01 00:47:24;;;;;;;2.40;1.15;;;;;;;25.23;58.41;100451.38;4877411;29;20115;-61
2022/09/01 00:50:12;;;;;;;1.55;1.00;;;;;;;25.20;58.92;100448.63;4879412;29;20061;-59
2022/09/01 00:52:57;;;;;;;1.65;1.08;;;;;;;25.10;58.73;100453.97;4879373;29;20097;-60
2022/09/01 00:55:42;;;;;;;1.73;1.00;;;;;;;25.08;59.21;100456.38;4879252;29;20056;-60
2022/09/01 00:58:27;;;;;;;1.02;0.90;;;;;;;25.05;59.11;100451.66;4864018;29;20524;-61
2022/09/01 01:01:13;;;;;;;1.50;1.17;;;;;;;25.06;59.11;100458.78;4860707;29;20048;-59
2022/09/01 01:04:01;;;;;;;2.15;1.08;;;;;;;25.08;59.14;100450.81;4860735;29;20057;-61
2022/09/01 01:06:57;;;;;;;2.58;1.27;;;;;;;25.07;59.03;100448.44;4861008;29;20054;-61
2022/09/01 01:09:44;;;;;;;1.30;1.15;;;;;;;25.11;58.80;100455.53;4860299;29;20157;-60
2022/09/01 01:12:29;;;;;;;5.43;1.17;;;;;;;25.11;58.86;100468.66;4860536;29;20556;-61
2022/09/01 01:15:16;;;;;;;3.85;1.10;;;;;;;25.11;58.96;100465.88;4860530;29;20065;-61
2022/09/01 01:18:01;;;;;;;1.40;1.00;;;;;;;25.10;58.73;100464.28;4865519;29;20060;-61
2022/09/01 01:24:08;;;;;;;1.75;0.95;;;;;;;25.09;58.80;100465.53;4860508;29;20044;-59
2022/09/01 01:26:58;;;;;;;2.47;0.98;;;;;;;25.05;58.79;100468.34;4860213;29;20053;-60
2022/09/01 01:29:46;;;;;;;2.15;1.20;;;;;;;25.01;58.86;100462.03;4859969;29;20418;-60
2022/09/01 01:32:32;;;;;;;1.77;0.93;;;;;;;24.97;59.59;100457.75;4885401;29;20097;-60
2022/09/01 01:35:20;;;;;;;1.25;0.90;;;;;;;25.10;58.84;100464.28;4859912;29;20414;-60
2022/09/01 01:38:06;;;;;;;1.95;0.73;;;;;;;25.14;58.70;100467.84;4859815;29;20512;-61
2022/09/01 01:40:54;;;;;;;2.63;1.33;;;;;;;25.18;58.66;100460.22;4863474;29;20064;-62
2022/09/01 01:43:41;;;;;;;5.75;0.82;;;;;;;25.21;58.52;100462.16;4878559;29;20083;-61
2022/09/01 01:46:26;;;;;;;1.63;0.77;;;;;;;25.18;58.74;100463.00;4878972;29;20060;-61
2022/09/01 01:49:13;;;;;;;3.22;1.13;;;;;;;25.18;58.91;100465.78;4877614;29;20528;-61
2022/09/01 01:52:00;;;;;;;3.10;1.10;;;;;;;25.14;58.91;100465.81;4876642;29;20056;-60
2022/09/01 01:54:49;;;;;;;3.03;1.17;;;;;;;25.13;58.94;100464.25;4878092;29;20068;-61
2022/09/01 01:57:34;;;;;;;1.23;1.00;;;;;;;25.09;59.29;100459.97;4877943;29;20060;-60
2022/09/01 02:00:23;;;;;;;3.85;1.30;;;;;;;25.10;59.37;100469.88;4878282;29;20130;-59
2022/09/01 02:03:08;;;;;;;2.15;1.20;;;;;;;25.07;59.23;100465.16;4862017;29;20053;-60
2022/09/01 02:05:54;;;;;;;3.50;1.25;;;;;;;25.08;59.24;100463.94;4859570;29;20451;-61
2022/09/01 02:08:40;;;;;;;3.22;1.30;;;;;;;25.02;59.64;100462.84;4860874;29;20075;-61
2022/09/01 02:11:25;;;;;;;2.30;1.10;;;;;;;25.06;59.59;100466.34;4859981;29;20056;-60
2022/09/01 02:14:12;;;;;;;6.10;1.35;;;;;;;25.02;59.64;100462.84;4859711;29;20426;-60
2022/09/01 02:17:04;;;;;;;3.75;1.20;;;;;;;25.03;59.62;100459.66;4859239;29;20116;-60
2022/09/01 02:19:56;;;;;;;2.35;0.98;;;;;;;25.06;59.56;100460.78;4859227;29;20068;-61
2022/09/01 02:22:43;;;;;;;1.25;1.10;;;;;;;25.02;59.96;100463.63;4865620;29;20052;-60
2022/09/01 02:25:28;;;;;;;3.83;1.00;;;;;;;24.98;60.02;100462.09;4879851;29;20131;-61
2022/09/01 02:28:15;;;;;;;1.80;1.20;;;;;;;24.91;60.45;100460.19;4877643;29;20437;-60
2022/09/01 02:31:03;;;;;;;2.22;1.38;;;;;;;24.85;60.83;100461.06;4877828;29;20421;-61
2022/09/01 02:33:48;;;;;;;2.70;1.45;;;;;;;24.80;61.00;100467.09;4876072;29;20051;-60
2022/09/01 02:36:33;;;;;;;4.43;1.40;;;;;;;24.79;61.28;100466.28;4878191;29;20072;-59
2022/09/01 02:39:24;;;;;;;3.88;1.90;;;;;;;24.76;61.22;100458.78;4877265;29;20404;-60
2022/09/01 02:42:12;;;;;;;6.35;1.85;;;;;;;24.74;61.33;100458.41;4879669;29;20161;-60
2022/09/01 02:44:57;;;;;;;4.88;2.20;;;;;;;24.76;61.33;100460.78;4877437;29;20535;-60
2022/09/01 02:47:44;;;;;;;3.03;2.25;;;;;;;24.68;61.64;100460.91;4876429;29;20048;-60
2022/09/01 02:50:31;;;;;;;5.55;2.00;;;;;;;24.72;61.63;100460.84;4877389;29;20059;-60
2022/09/01 02:53:16;;;;;;;2.30;2.10;;;;;;;24.78;61.48;100452.81;4875830;29;20412;-61
2022/09/01 02:56:10;;;;;;;4.38;1.77;;;;;;;24.84;61.30;100454.69;4877420;29;20060;-61
2022/09/01 02:58:56;;;;;;;3.97;2.22;;;;;;;24.93;60.62;100445.88;4876839;29;20048;-62
2022/09/01 03:01:46;;;;;;;5.72;2.55;;;;;;;24.94;60.66;100445.44;4876881;29;20052;-63
2022/09/01 03:04:33;;;;;;;2.80;1.75;;;;;;;25.00;60.51;100442.97;4877416;29;20065;-61
2022/09/01 03:07:20;;;;;;;2.40;1.58;;;;;;;24.96;60.85;100445.03;4878228;29;20044;-64
2022/09/01 03:10:08;;;;;;;7.25;2.20;;;;;;;24.96;61.07;100447.81;4877259;29;20052;-64
2022/09/01 03:12:53;;;;;;;3.40;1.55;;;;;;;24.99;60.98;100449.78;4877311;29;20051;-63
2022/09/01 03:15:40;;;;;;;7.78;2.42;;;;;;;24.94;61.09;100439.13;4877348;29;20064;-63
2022/09/01 03:18:25;;;;;;;3.10;2.30;;;;;;;24.93;61.10;100448.66;4877022;29;20057;-61
2022/09/01 03:21:14;;;;;;;8.52;1.85;;;;;;;24.89;60.83;100445.16;4877251;29;20413;-62
2022/09/01 03:24:02;;;;;;;1.50;1.38;;;;;;;24.83;61.19;100444.00;4875373;29;20052;-61
2022/09/01 03:26:49;;;;;;;3.25;1.52;;;;;;;24.84;61.19;100440.03;4876940;29;20052;-62
2022/09/01 03:29:34;;;;;;;1.67;1.23;;;;;;;24.78;61.11;100441.69;4876813;29;20405;-60
2022/09/01 03:32:20;;;;;;;2.40;1.50;;;;;;;24.81;61.13;100438.06;4877511;29;20064;-63
2022/09/01 03:35:07;;;;;;;3.58;1.35;;;;;;;24.83;60.91;100438.44;4877014;29;20053;-63
2022/09/01 03:37:53;;;;;;;3.03;1.50;;;;;;;24.85;61.10;100441.56;4877200;29;20051;-65
2022/09/01 03:40:39;;;;;;;2.92;1.35;;;;;;;24.68;61.76;100435.88;4876908;29;20052;-64
2022/09/01 03:43:26;;;;;;;2.90;1.67;;;;;;;24.68;61.90;100444.22;4877068;29;20055;-62
2022/09/01 03:46:11;;;;;;;9.40;2.95;;;;;;;24.73;61.95;100444.94;4876974;29;20512;-64
2022/09/01 03:49:00;;;;;;;3.08;2.10;;;;;;;24.80;62.07;100442.03;4878093;29;20068;-63
2022/09/01 03:51:47;;;;;;;4.47;2.63;;;;;;;24.89;61.56;100442.38;4877293;29;20071;-64
2022/09/01 03:54:32;;;;;;;3.03;1.92;;;;;;;24.98;61.49;100434.28;4877103;29;20052;-63
2022/09/01 03:57:17;;;;;;;4.65;2.22;;;;;;;25.03;61.35;100429.03;4877720;29;20056;-62
2022/09/01 04:00:03;;;;;;;3.60;2.08;;;;;;;25.10;61.19;100434.47;4865468;29;20051;-63
2022/09/01 04:02:59;;;;;;;2.60;1.63;;;;;;;25.15;60.84;100433.22;4892034;29;20048;-63
2022/09/01 04:05:45;;;;;;;3.72;1.80;;;;;;;25.13;60.99;100432.84;4860478;29;20528;-63
2022/09/01 04:08:30;;;;;;;3.22;1.77;;;;;;;25.13;61.01;100436.44;4880749;29;20056;-63
2022/09/01 04:11:22;;;;;;;2.45;1.60;;;;;;;25.17;61.03;100435.56;4878636;29;20413;-64
2022/09/01 04:14:10;;;;;;;14.85;3.08;;;;;;;25.20;61.08;100438.28;4880154;29;20048;-64
2022/09/01 04:20:07;;;;;;;4.00;1.75;;;;;;;25.15;61.28;100430.44;4881086;29;20060;-64
2022/09/01 04:22:53;;;;;;;3.95;2.13;;;;;;;25.05;61.75;100437.72;4882029;29;20048;-63
2022/09/01 04:25:40;;;;;;;3.38;1.70;;;;;;;25.08;61.70;100439.69;4879856;29;20056;-64
2022/09/01 04:28:33;;;;;;;9.07;1.90;;;;;;;25.12;61.74;100439.63;4899415;29;20052;-63
2022/09/01 04:31:20;;;;;;;8.20;3.28;;;;;;;25.07;62.10;100429.75;4899685;29;20072;-64
2022/09/01 04:34:13;;;;;;;3.22;1.98;;;;;;;25.06;61.95;100432.97;4899330;29;20075;-62
2022/09/01 04:37:00;;;;;;;2.63;1.95;;;;;;;25.06;61.98;100432.97;4891673;29;20048;-64
2022/09/01 04:39:51;;;;;;;6.45;1.92;;;;;;;25.07;62.52;100438.13;4879801;29;20056;-64
2022/09/01 04:42:36;;;;;;;4.82;2.67;;;;;;;24.97;63.07;100443.84;4887143;29;20060;-63
2022/09/01 04:45:27;;;;;;;3.85;2.10;;;;;;;24.92;62.72;100441.53;4878258;29;20404;-62
2022/09/01 04:48:13;;;;;;;7.63;2.10;;;;;;;24.94;62.72;100439.13;4874128;29;20040;-66
2022/09/01 04:50:58;;;;;;;7.95;3.22;;;;;;;24.93;63.18;100435.53;4897286;29;20048;-64
2022/09/01 04:53:47;;;;;;;6.32;2.78;;;;;;;24.69;64.30;100428.28;4880615;29;20044;-64
2022/09/01 04:56:34;;;;;;;3.83;2.10;;;;;;;24.87;63.58;100439.19;4894378;29;20064;-68
2022/09/01 04:59:31;;;;;;;6.25;2.08;;;;;;;25.00;63.44;100437.41;4897841;29;20052;-67
2022/09/01 05:02:18;;;;;;;10.10;2.03;;;;;;;25.10;63.57;100436.47;4897477;29;20056;-68
2022/09/01 05:05:03;;;;;;;10.57;1.55;;;;;;;25.15;63.22;100433.22;4897879;29;20503;-68
2022/09/01 05:07:54;;;;;;;7.10;1.63;;;;;;;25.21;62.98;100431.53;4866063;29;20049;-69
2022/09/01 05:10:44;;;;;;;6.50;1.95;;;;;;;25.25;62.81;100431.47;4861052;29;20076;-68
2022/09/01 05:13:39;;;;;;;3.47;1.42;;;;;;;25.26;62.42;100435.81;4871189;29;20063;-69
2022/09/01 05:16:26;;;;;;;8.45;1.25;;;;;;;25.22;61.67;100433.09;4874165;29;20053;-69
2022/09/01 05:19:19;;;;;;;4.90;2.13;;;;;;;25.20;61.24;100435.50;4887402;29;20048;-68
2022/09/01 05:22:09;;;;;;;2.80;1.30;;;;;;;25.22;61.67;100429.53;4864636;29;20513;-69
2022/09/01 05:25:11;;;;;;;13.25;2.25;;;;;;;25.25;62.15;100425.91;4879525;29;20056;-69
2022/09/01 05:27:58;;;;;;;4.18;1.50;;;;;;;25.25;62.19;100432.25;4878339;29;20052;-71
2022/09/01 05:30:46;;;;;;;4.63;1.40;;;;;;;25.28;62.13;100427.84;4889216;23;20537;-80
2022/09/01 05:33:33;;;;;;;3.10;1.58;;;;;;;25.27;61.92;100424.28;4882535;29;20075;-80
2022/09/01 05:36:21;;;;;;;2.35;1.33;;;;;;;25.30;62.27;100426.22;4910879;29;20051;-80
2022/09/01 05:39:11;;;;;;;2.70;1.30;;;;;;;25.27;62.05;100432.63;4914213;29;20130;-80
2022/09/01 05:41:57;;;;;;;2.53;1.50;;;;;;;25.30;62.19;100434.56;4879053;29;20527;-79
2022/09/01 05:44:43;;;;;;;3.80;1.25;;;;;;;25.29;62.26;100427.44;4873974;29;20074;-79
2022/09/01 05:47:29;;;;;;;2.40;1.02;;;;;;;25.29;62.18;100427.44;4884095;29;20048;-79
2022/09/01 05:50:15;;;;;;;1.85;1.20;;;;;;;25.30;62.58;100428.19;4842839;29;20057;-78
2022/09/01 05:53:02;;;;;;;4.15;1.38;;;;;;;25.30;62.18;100434.56;4846815;29;20061;-78
2022/09/01 05:55:47;;;;;;;3.22;1.30;;;;;;;25.31;62.24;100443.69;4863100;29;20056;-78
2022/09/01 05:58:33;;;;;;;3.45;1.42;;;;;;;25.30;61.80;100440.13;4862868;29;20049;-79
2022/09/01 06:01:23;;;;;;;5.03;1.20;;;;;;;25.32;62.00;100443.28;4860920;29;20052;-79
2022/09/01 06:04:09;;;;;;;3.05;1.42;;;;;;;25.31;62.10;100450.06;4868438;29;20072;-80
2022/09/01 06:06:55;;;;;;;1.95;1.33;;;;;;;25.32;61.91;100442.50;4860949;29;20044;-85
2022/09/01 06:09:44;;;;;;;3.38;1.45;;;;;;;25.33;61.94;100446.84;4877608;29;20052;-78
2022/09/01 06:12:29;;;;;;;2.95;1.52;;;;;;;25.32;62.03;100459.19;4862568;29;20044;-80
2022/09/01 06:15:17;;;;;;;2.63;1.50;;;;;;;25.30;61.72;100462.41;4866296;29;20052;-81
2022/09/01 06:18:10;;;;;;;4.43;1.50;;;;;;;25.32;61.05;100465.56;4870821;29;20048;-82
2022/09/01 06:21:03;;;;;;;2.78;1.60;;;;;;;25.31;61.23;100466.75;4882713;29;20060;-81
2022/09/01 06:23:50;;;;;;;5.38;1.33;;;;;;;25.31;61.41;100466.75;4858765;29;20056;-82
2022/09/01 06:26:37;;;;;;;3.63;1.42;;;;;;;25.28;60.89;100464.84;4866496;29;20411;-82
2022/09/01 06:29:22;;;;;;;4.07;1.30;;;;;;;25.27;61.29;100468.81;4867810;29;20067;-82
2022/09/01 06:32:09;;;;;;;3.60;1.55;;;;;;;25.29;61.86;100477.53;4871927;29;20071;-82
2022/09/01 06:34:56;;;;;;;5.18;1.38;;;;;;;25.31;61.57;100477.91;4887672;29;20049;-83
2022/09/01 06:37:42;;;;;;;2.30;1.00;;;;;;;25.28;61.75;100484.31;4882465;29;20069;-83
2022/09/01 06:40:31;;;;;;;2.03;1.58;;;;;;;25.26;61.65;100492.28;4892772;29;20415;-83
2022/09/01 06:43:16;;;;;;;3.03;1.33;;;;;;;25.30;61.86;100495.81;4866515;29;20060;-83
2022/09/01 06:46:05;;;;;;;4.30;1.20;;;;;;;25.31;62.10;100502.94;4844161;29;20045;-83
2022/09/01 06:48:50;;;;;;;3.97;1.52;;;;;;;25.32;62.01;100503.75;4842882;29;20049;-82
2022/09/01 06:51:34;;;;;;;;;;;;;;;25.34;61.85;100510.47;4867507;29;20048;-83
2022/09/01 06:54:20;;;;;;;4.00;0.88;;;;;;;25.32;62.13;100514.88;4868394;29;20297;-82
2022/09/01 06:57:06;;;;;;;3.00;1.23;;;;;;;25.33;61.91;100517.25;4866315;29;20048;-81
2022/09/01 06:59:52;;;;;;;1.95;1.20;;;;;;;25.32;61.98;100518.44;4874022;29;20056;-82
2022/09/01 07:02:38;;;;;;;1.80;1.30;;;;;;;25.34;62.24;100518.03;4874965;29;20068;-82
2022/09/01 07:05:40;;;;;;;3.05;1.30;;;;;;;25.36;61.76;100527.53;4872769;29;20163;-82
2022/09/01 07:08:25;;;;;;;1.48;0.90;;;;;;;25.35;61.78;100531.53;4863123;29;20045;-83
2022/09/01 07:11:29;;;;;;;1.65;1.10;;;;;;;25.38;61.77;100529.91;4859127;29;20056;-83
2022/09/01 07:14:15;;;;;;;2.55;1.00;;;;;;;25.36;60.99;100533.09;4864937;29;20534;-81
2022/09/01 07:17:00;;;;;;;4.82;1.13;;;;;;;25.38;60.92;100541.03;4870156;29;20060;-81
2022/09/01 07:19:46;;;;;;;2.63;1.30;;;;;;;25.33;60.11;100536.75;4860438;29;20049;-82
2022/09/01 07:22:31;;;;;;;6.20;1.30;;;;;;;25.37;60.66;100534.69;4869368;29;20060;-79
2022/09/01 07:25:17;;;;;;;3.85;1.83;;;;;;;25.32;60.03;100546.28;4875146;29;20068;-81
2022/09/01 07:28:31;;;;;;;5.47;1.15;;;;;;;25.39;60.53;100543.41;4877692;29;20071;-80
2022/09/01 07:31:25;;;;;;;1.90;1.08;;;;;;;25.37;60.06;100543.03;4878155;29;20060;-81
2022/09/01 07:34:13;;;;;;;2.55;1.33;;;;;;;25.38;59.82;100550.19;4871515;29;20055;-81
2022/09/01 07:36:58;;;;;;;1.67;1.13;;;;;;;25.29;58.70;100549.13;4883187;29;20060;-82
2022/09/01 07:39:46;;;;;;;3.08;1.08;;;;;;;25.31;59.09;100553.06;4881369;29;20534;-82
2022/09/01 07:42:56;;;;;;;4.93;1.00;;;;;;;25.40;59.78;100561.69;4880335;29;20055;-82
2022/09/01 07:46:04;;;;;;;2.58;1.45;;;;;;;25.42;59.77;100559.28;4879727;29;20064;-82
2022/09/01 07:48:52;;;;;;;2.78;1.15;;;;;;;25.43;60.25;100557.28;4882392;29;20064;-81
2022/09/01 07:51:36;;;;;;;2.65;1.08;;;;;;;25.41;59.21;100563.25;4882535;29;20059;-83
2022/09/01 07:54:23;;;;;;;2.70;0.90;;;;;;;25.40;58.77;100558.88;4887674;29;20051;-81
2022/09/01 07:57:09;;;;;;;1.75;1.02;;;;;;;25.41;58.68;100563.25;4897420;29;20056;-80
2022/09/01 07:59:56;;;;;;;1.45;1.05;;;;;;;25.47;59.61;100560.78;4881902;29;20072;-81
2022/09/01 08:02:57;;;;;;;2.22;1.45;;;;;;;25.44;58.61;100562.44;4886717;29;20056;-80
2022/09/01 08:05:43;;;;;;;1.45;0.90;;;;;;;25.44;59.18;100551.28;4871821;29;20052;-80
2022/09/01 08:08:28;;;;;;;5.22;1.17;;;;;;;25.49;59.73;100555.59;4878605;29;20060;-80
2022/09/01 08:11:28;;;;;;;5.28;1.00;;;;;;;25.45;57.56;100555.63;4845272;29;20061;-81
2022/09/01 08:14:13;;;;;;;3.42;0.85;;;;;;;25.45;58.09;100554.84;4845722;29;20053;-81
2022/09/01 08:16:57;;;;;;;;;;;;;;;25.51;57.88;100555.94;4846150;29;20052;-81
2022/09/01 08:19:42;;;;;;;1.08;0.80;;;;;;;25.50;58.85;100551.59;4845114;29;19917;-81
2022/09/01 08:22:31;;;;;;;1.90;1.25;;;;;;;25.51;57.80;100551.16;4845358;29;20053;-81
2022/09/01 08:25:22;;;;;;;1.48;0.88;;;;;;;25.51;57.77;100553.16;4848419;29;20419;-80
2022/09/01 08:28:07;;;;;;;1.60;1.00;;;;;;;25.53;57.67;100557.13;4866938;29;20048;-80
2022/09/01 08:30:52;;;;;;;1.27;1.00;;;;;;;25.52;57.06;100557.53;4873336;29;20055;-80
2022/09/01 08:33:39;;;;;;;3.85;0.80;;;;;;;25.50;56.28;100557.94;4898348;29;20462;-80
2022/09/01 08:36:25;;;;;;;2.20;0.60;;;;;;;25.54;58.10;100558.69;4883049;29;20052;-80
2022/09/01 08:39:10;;;;;;;1.60;0.80;;;;;;;25.54;58.64;100561.50;4858353;29;20073;-80
2022/09/01 08:42:05;;;;;;;1.80;1.02;;;;;;;25.58;57.54;100564.25;4870295;29;20563;-79
2022/09/01 08:45:02;;;;;;;;;;;;;;;25.60;57.15;100564.59;4855694;29;20056;-79
2022/09/01 08:47:52;;;;;;;1.63;0.77;;;;;;;25.55;56.48;100557.50;4854334;29;19916;-80
2022/09/01 08:50:37;;;;;;;0.82;0.70;;;;;;;25.54;56.53;100561.50;4851903;29;20044;-79
2022/09/01 08:53:48;;;;;;;1.48;0.95;;;;;;;25.57;56.55;100564.66;4856122;29;20057;-80
2022/09/01 08:56:36;;;;;;;3.13;1.05;;;;;;;25.59;56.97;100568.59;4855321;29;20044;-80
2022/09/01 08:59:21;;;;;;;2.03;0.80;;;;;;;25.62;57.41;100562.19;4876297;29;20084;-80
2022/09/01 09:02:49;;;;;;;1.05;0.70;;;;;;;25.62;56.32;100570.53;4880376;29;20056;-79
2022/09/01 09:05:58;;;;;;;0.93;0.55;;;;;;;25.63;56.56;100566.56;4862808;29;20052;-80
2022/09/01 09:09:01;;;;;;;1.48;0.70;;;;;;;25.63;55.97;100569.34;4869388;29;20061;-80
2022/09/01 09:12:06;;;;;;;2.25;0.80;;;;;;;25.72;57.00;100577.16;4871699;29;20057;-79
2022/09/01 09:15:18;;;;;;;5.05;0.57;;;;;;;25.73;56.78;100584.31;4865912;29;20040;-79
2022/09/01 09:18:10;;;;;;;1.13;0.60;;;;;;;25.68;56.28;100566.06;4865233;29;20060;-80
2022/09/01 09:21:02;;;;;;;0.77;0.40;;;;;;;25.59;53.81;100565.03;4892831;29;20230;-80
2022/09/01 09:23:52;;;;;;;1.77;0.65;;;;;;;25.62;54.82;100575.31;4872350;29;20053;-78
2022/09/01 09:26:37;;;;;;;1.30;0.60;;;;;;;25.59;53.80;100573.38;4853542;29;20049;-80
2022/09/01 09:29:23;;;;;;;0.55;0.55;;;;;;;25.61;54.46;100576.53;4845881;29;20057;-83
2022/09/01 09:32:09;;;;;;;2.95;0.70;;;;;;;25.64;55.04;100579.28;4843916;29;20420;-79
2022/09/01 09:34:53;;;;;;;1.10;0.60;;;;;;;25.66;55.33;100576.03;4865333;29;20061;-80
2022/09/01 09:37:38;;;;;;;2.28;0.60;;;;;;;25.65;55.23;100578.03;4850937;29;20045;-79
2022/09/01 09:40:24;;;;;;;;;;;;;;;25.63;53.27;100577.69;4852663;29;20052;-79
2022/09/01 09:43:14;;;;;;;1.60;0.70;;;;;;;25.62;53.59;100578.09;4853395;29;19920;-80
2022/09/01 09:46:24;;;;;;;1.58;0.40;;;;;;;25.64;53.47;100570.13;4852149;29;20056;-79
2022/09/01 09:49:22;;;;;;;0.93;0.80;;;;;;;25.64;53.76;100570.13;4858539;29;20049;-79
2022/09/01 09:52:07;;;;;;;1.05;0.60;;;;;;;25.64;54.13;100570.13;4864680;29;20056;-79
2022/09/01 09:55:03;;;;;;;1.38;0.40;;;;;;;25.62;52.72;100566.97;4842467;29;20057;-80
2022/09/01 09:57:49;;;;;;;1.90;0.60;;;;;;;25.64;53.42;100557.00;4857731;29;20073;-80
2022/09/01 10:00:34;;;;;;;1.90;0.60;;;;;;;25.69;54.60;100562.09;4864149;29;20052;-79
2022/09/01 10:03:35;;;;;;;0.80;0.40;;;;;;;25.72;52.93;100566.81;4856390;29;20052;-79
2022/09/01 10:06:31;;;;;;;0.65;0.40;;;;;;;25.79;54.40;100554.75;4866137;29;20052;-79
2022/09/01 10:09:23;;;;;;;1.50;0.63;;;;;;;25.83;55.38;100561.84;4868971;29;20049;-79
2022/09/01 10:12:09;;;;;;;4.18;0.60;;;;;;;25.82;54.69;100553.91;4866466;29;20068;-79
2022/09/01 10:15:05;;;;;;;1.40;0.68;;;;;;;25.86;54.59;100549.06;4855792;29;20048;-79
2022/09/01 10:17:53;;;;;;;1.42;0.60;;;;;;;25.80;51.96;100542.41;4872546;29;20049;-79
2022/09/01 10:20:38;;;;;;;3.78;0.50;;;;;;;25.83;51.92;100539.56;4863939;29;20057;-79
2022/09/01 10:23:26;;;;;;;0.43;0.30;;;;;;;25.84;51.60;100534.78;4842056;29;20052;-80
2022/09/01 10:26:17;;;;;;;1.17;0.60;;;;;;;25.86;51.95;100538.69;4841966;29;20057;-80
2022/09/01 10:29:28;;;;;;;4.28;1.85;;;;;;;25.99;53.83;100533.31;4842914;29;20412;-79
2022/09/01 10:32:25;;;;;;;1.65;0.60;;;;;;;25.95;50.49;100529.81;4866513;29;20423;-80
2022/09/01 10:35:18;;;;;;;2.90;0.40;;;;;;;25.98;50.58;100523.38;4856990;29;20048;-80
2022/09/01 10:38:07;;;;;;;0.70;0.40;;;;;;;26.00;51.31;100520.97;4849516;29;20058;-79
2022/09/01 10:41:07;;;;;;;0.68;0.60;;;;;;;26.05;53.12;100531.63;4854534;29;20057;-78
2022/09/01 10:43:52;;;;;;;1.08;0.70;;;;;;;26.07;54.45;100531.97;4870684;29;20049;-79
2022/09/01 10:46:36;;;;;;;0.77;0.40;;;;;;;26.11;55.55;100531.94;4863194;29;20064;-79
2022/09/01 10:49:41;;;;;;;;;;;;;;;26.11;51.42;100529.91;4864339;29;20048;-80
2022/09/01 10:52:41;;;;;;;4.70;0.60;;;;;;;26.16;51.68;100535.00;4869993;29;19916;-81
2022/09/01 10:55:46;;;;;;;0.30;0.30;;;;;;;26.21;53.37;100542.88;4863813;29;20057;-81
2022/09/01 10:58:30;;;;;;;;;;;;;;;26.22;53.93;100533.31;4867349;29;20068;-80
2022/09/01 11:01:15;;;;;;;0.40;0.40;;;;;;;26.22;53.23;100533.31;4872379;29;20017;-80
2022/09/01 11:04:00;;;;;;;0.75;0.55;;;;;;;26.25;51.97;100535.28;4879272;29;20065;-80
2022/09/01 11:07:02;;;;;;;6.68;0.88;;;;;;;26.35;51.75;100536.28;4879474;29;20518;-79
2022/09/01 11:10:18;;;;;;;1.70;0.38;;;;;;;26.36;51.69;100533.06;4879190;29;20048;-79
2022/09/01 11:13:34;;;;;;;7.63;0.73;;;;;;;27.03;44.66;100532.94;4868774;29;20052;-80
2022/09/01 11:16:34;;;;;;;0.52;0.30;;;;;;;26.92;43.43;100526.81;4858189;29;20053;-80
2022/09/01 11:19:34;;;;;;;2.15;0.32;;;;;;;26.91;45.39;100528.81;4866393;29;20428;-81
2022/09/01 11:22:24;;;;;;;4.10;0.68;;;;;;;27.09;43.64;100534.00;4860936;29;20541;-80
2022/09/01 11:25:32;;;;;;;0.75;0.55;;;;;;;27.07;41.45;100536.44;4860731;29;20065;-80
2022/09/01 11:28:23;;;;;;;0.82;0.30;;;;;;;27.24;40.87;100533.25;4876707;29;20053;-80
2022/09/01 11:31:08;;;;;;;2.90;0.45;;;;;;;27.45;40.35;100540.34;4882075;23;20065;-65
2022/09/01 11:34:16;;;;;;;2.60;0.35;;;;;;;27.55;43.34;100527.38;4867025;29;20068;-64
2022/09/01 11:37:01;;;;;;;2.05;0.30;;;;;;;27.69;41.37;100523.44;4873116;29;20563;-64
2022/09/01 11:40:00;;;;;;;0.30;0.20;;;;;;;27.86;41.20;100523.00;4864173;29;20245;-64
2022/09/01 11:42:50;;;;;;;2.20;0.20;;;;;;;27.93;42.93;100522.84;4862821;29;20056;-64
2022/09/01 11:45:57;;;;;;;4.20;0.47;;;;;;;28.02;41.54;100525.81;4862497;29;20536;-64
2022/09/01 11:48:47;;;;;;;0.63;0.40;;;;;;;28.27;39.42;100516.00;4862324;29;20414;-64
2022/09/01 11:51:44;;;;;;;0.90;0.30;;;;;;;28.28;38.54;100517.56;4862570;29;20049;-63
2022/09/01 11:54:38;;;;;;;0.32;0.10;;;;;;;28.37;39.23;100524.09;4861979;29;20117;-64
2022/09/01 11:57:27;;;;;;;0.57;0.30;;;;;;;27.93;40.97;100525.66;4856968;29;20065;-63
2022/09/01 12:00:24;;;;;;;1.95;0.30;;;;;;;28.03;38.25;100526.59;4863541;29;20052;-64
2022/09/01 12:03:28;;;;;;;0.85;0.20;;;;;;;28.55;37.33;100523.56;4875300;29;20063;-62
2022/09/01 12:06:22;;;;;;;2.08;0.35;;;;;;;28.64;37.93;100528.56;4853347;29;20056;-62
2022/09/01 12:09:07;;;;;;;2.63;0.38;;;;;;;28.55;36.72;100520.78;4855194;29;20064;-63
2022/09/01 12:11:52;;;;;;;1.20;0.80;;;;;;;28.64;36.43;100523.75;4861799;29;20052;-63
2022/09/01 12:14:37;;;;;;;2.05;0.30;;;;;;;29.04;35.70;100529.78;4862635;29;20053;-64
2022/09/01 12:17:22;;;;;;;1.83;0.28;;;;;;;29.41;35.25;100533.84;4861245;29;20052;-65
2022/09/01 12:20:26;;;;;;;0.50;0.35;;;;;;;31.05;32.93;100541.00;4860924;29;20048;-64
2022/09/01 12:23:31;;;;;;;3.92;0.30;;;;;;;30.12;34.55;100534.34;4880501;29;20512;-63
2022/09/01 12:26:26;;;;;;;0.25;0.20;;;;;;;32.02;30.99;100535.88;4859924;29;20531;-64
2022/09/01 12:29:13;;;;;;;1.75;0.30;;;;;;;34.95;27.31;100536.97;4853818;29;20409;-64
2022/09/01 12:32:00;;;;;;;1.73;0.30;;;;;;;33.21;29.43;100536.63;4848034;29;20529;-67
2022/09/01 12:34:57;;;;;;;2.13;0.10;;;;;;;32.59;30.77;100534.97;4850128;29;20497;-62
2022/09/01 12:37:42;;;;;;;1.05;0.25;;;;;;;34.31;28.11;100534.75;4852938;29;20045;-64
2022/09/01 12:40:33;;;;;;;1.15;0.20;;;;;;;33.33;29.14;100536.38;4850334;29;20077;-64
2022/09/01 12:43:31;;;;;;;0.30;0.20;;;;;;;34.38;28.30;100536.41;4857674;29;20052;-64
2022/09/01 12:46:41;;;;;;;0.73;0.60;;;;;;;34.85;26.81;100532.69;4867629;29;20057;-63
2022/09/01 12:49:36;;;;;;;3.22;0.20;;;;;;;37.92;23.62;100535.75;4853087;29;20061;-64
2022/09/01 12:52:25;;;;;;;0.77;0.30;;;;;;;36.59;24.43;100531.84;4855993;29;20060;-64
2022/09/01 12:55:20;;;;;;;0.70;0.30;;;;;;;34.48;26.79;100527.38;4855482;29;20060;-64
2022/09/01 12:58:07;;;;;;;7.85;0.30;;;;;;;33.78;28.99;100521.28;4856777;29;20052;-64
2022/09/01 13:01:00;;;;;;;1.98;0.22;;;;;;;35.51;27.00;100536.63;4864176;29;20521;-64
2022/09/01 13:04:06;;;;;;;5.30;0.28;;;;;;;34.32;27.93;100520.16;4860954;29;20044;-63
2022/09/01 13:06:53;;;;;;;0.57;0.30;;;;;;;33.01;30.19;100518.19;4862179;29;20048;-62
2022/09/01 13:09:38;;;;;;;2.03;0.40;;;;;;;31.40;31.61;100519.91;4860674;29;20048;-62
2022/09/01 13:12:23;;;;;;;0.93;0.50;;;;;;;31.68;33.04;100515.19;4860536;29;20077;-63
2022/09/01 13:15:08;;;;;;;0.63;0.28;;;;;;;31.32;33.28;100518.66;4860078;29;20052;-63
2022/09/01 13:17:53;;;;;;;0.30;0.30;;;;;;;29.62;35.42;100516.34;4860445;29;20049;-69